createdAt,value
2018-08-12T00:04:58.271Z,2.17
2018-08-12T00:10:01.748Z,2.30
2018-08-12T00:15:05.942Z,2.60
2018-08-12T00:20:12.288Z,2.00
2018-08-12T00:25:18.072Z,2.73
2018-08-12T00:30:21.550Z,2.10
2018-08-12T00:35:25.007Z,2.13
2018-08-12T00:40:28.559Z,2.13
2018-08-12T00:45:32.039Z,2.50
2018-08-12T00:50:35.542Z,2.67
2018-08-12T00:55:38.983Z,2.63
2018-08-12T01:00:42.494Z,2.63
2018-08-12T01:05:45.950Z,2.83
2018-08-12T01:10:49.430Z,2.03
2018-08-12T01:15:52.919Z,2.30
2018-08-12T01:20:56.408Z,3.20
2018-08-12T01:25:59.857Z,2.60
2018-08-12T01:31:03.360Z,2.30
2018-08-12T01:36:06.810Z,2.80
2018-08-12T01:41:10.248Z,2.57
2018-08-12T01:46:13.709Z,2.90
2018-08-12T01:51:17.131Z,2.80
2018-08-12T01:56:20.622Z,2.40
2018-08-12T02:01:24.078Z,2.50
2018-08-12T02:06:27.638Z,2.60
2018-08-12T02:11:31.117Z,3.07
2018-08-12T02:16:34.621Z,2.70
2018-08-12T02:21:38.038Z,2.97
2018-08-12T02:32:07.077Z,2.93
2018-08-12T02:37:10.530Z,3.30
2018-08-12T02:42:13.961Z,2.70
2018-08-12T02:47:17.433Z,2.40
2018-08-12T02:52:23.812Z,3.03
2018-08-12T02:57:27.262Z,3.00
2018-08-12T03:02:30.726Z,2.70
2018-08-12T03:07:34.547Z,2.90
2018-08-12T03:12:38.182Z,3.00
2018-08-12T03:17:41.640Z,3.00
2018-08-12T03:22:45.116Z,2.50
2018-08-12T03:27:48.511Z,2.87
2018-08-12T03:32:51.943Z,3.00
2018-08-12T03:37:55.377Z,2.97
2018-08-12T03:42:58.849Z,2.87
2018-08-12T03:48:02.308Z,3.50
2018-08-12T03:53:06.124Z,3.03
2018-08-12T03:58:09.579Z,3.00
2018-08-12T04:03:13.108Z,3.00
2018-08-12T04:08:16.568Z,2.77
2018-08-12T04:13:19.998Z,3.70
2018-08-12T04:18:23.448Z,3.00
2018-08-12T04:23:26.896Z,3.10
2018-08-12T04:28:30.329Z,3.40
2018-08-12T04:33:33.744Z,2.80
2018-08-12T04:38:37.185Z,2.83
2018-08-12T04:43:40.630Z,2.80
2018-08-12T04:48:44.037Z,2.67
2018-08-12T04:53:47.473Z,2.50
2018-08-12T04:58:50.890Z,2.90
2018-08-12T05:03:54.372Z,3.30
2018-08-12T05:08:57.876Z,3.60
2018-08-12T05:14:01.305Z,2.63
2018-08-12T05:19:05.095Z,3.17
2018-08-12T05:24:08.536Z,2.50
2018-08-12T05:29:11.997Z,3.00
2018-08-12T05:34:15.497Z,2.93
2018-08-12T05:39:18.976Z,2.80
2018-08-12T05:44:22.484Z,2.40
2018-08-12T05:49:25.986Z,2.50
2018-08-12T05:54:29.439Z,2.20
2018-08-12T05:59:32.936Z,2.30
2018-08-12T06:04:36.437Z,1.70
2018-08-12T06:09:39.902Z,2.20
2018-08-12T06:14:43.359Z,1.70
2018-08-12T06:19:46.904Z,2.10
2018-08-12T06:24:50.345Z,1.98
2018-08-12T06:29:53.792Z,2.33
2018-08-12T06:34:57.245Z,1.95
2018-08-12T06:40:00.792Z,1.90
2018-08-12T06:45:06.293Z,1.95
2018-08-12T06:50:10.374Z,2.05
2018-08-12T06:55:14.380Z,1.85
2018-08-12T07:00:19.014Z,1.90
2018-08-12T07:05:22.526Z,1.75
2018-08-12T07:10:26.021Z,1.55
2018-08-12T07:15:29.520Z,1.75
2018-08-12T07:20:33.056Z,1.67
2018-08-12T07:25:36.481Z,1.32
2018-08-12T07:30:39.962Z,1.55
2018-08-12T07:35:43.488Z,1.37
2018-08-12T07:40:47.001Z,1.60
2018-08-12T07:45:50.491Z,1.80
2018-08-12T07:50:53.986Z,1.67
2018-08-12T07:55:57.434Z,2.02
2018-08-12T08:01:00.926Z,1.52
2018-08-12T08:06:04.474Z,1.25
2018-08-12T08:11:07.973Z,1.50
2018-08-12T08:16:11.467Z,1.10
2018-08-12T08:21:14.977Z,1.00
2018-08-12T08:26:18.461Z,1.15
2018-08-12T08:31:22.003Z,1.10
2018-08-12T08:36:25.471Z,1.00
2018-08-12T08:41:29.002Z,0.90
2018-08-12T08:46:32.511Z,1.30
2018-08-12T08:51:35.969Z,1.17
2018-08-12T08:56:39.436Z,1.12
2018-08-12T09:01:42.915Z,1.15
2018-08-12T09:06:46.452Z,1.10
2018-08-12T09:11:49.935Z,1.00
2018-08-12T09:16:53.391Z,1.12
2018-08-12T09:21:56.893Z,1.00
2018-08-12T09:27:00.318Z,0.82
2018-08-12T09:32:03.858Z,1.10
2018-08-12T09:37:07.410Z,0.95
2018-08-12T09:42:10.888Z,0.80
2018-08-12T09:47:14.424Z,0.80
2018-08-12T09:52:17.902Z,1.10
2018-08-12T09:57:21.478Z,1.00
2018-08-12T10:02:24.917Z,1.37
2018-08-12T10:07:28.412Z,1.30
2018-08-12T10:12:31.903Z,1.37
2018-08-12T10:17:36.361Z,1.17
2018-08-12T10:22:39.889Z,1.10
2018-08-12T10:27:43.468Z,1.40
2018-08-12T10:32:46.963Z,0.82
2018-08-12T10:37:50.392Z,1.20
2018-08-12T10:42:53.896Z,0.93
2018-08-12T10:47:57.398Z,1.00
2018-08-12T10:53:00.970Z,0.93
2018-08-12T10:58:04.520Z,1.00
2018-08-12T11:03:08.063Z,1.00
2018-08-12T11:08:11.631Z,1.10
2018-08-12T11:13:15.175Z,1.32
2018-08-12T11:18:18.665Z,1.72
2018-08-12T11:23:22.153Z,1.20
2018-08-12T11:28:25.686Z,1.10
2018-08-12T11:33:29.121Z,1.15
2018-08-12T11:38:32.612Z,1.42
2018-08-12T11:43:36.065Z,1.02
2018-08-12T11:48:39.582Z,1.42
2018-08-12T11:53:43.104Z,1.12
2018-08-12T11:58:46.612Z,1.10
2018-08-12T12:03:50.131Z,1.10
2018-08-12T12:08:53.655Z,1.40
2018-08-12T12:13:57.207Z,1.85
2018-08-12T12:19:00.729Z,3.70
2018-08-12T12:24:04.277Z,1.72
2018-08-12T12:29:07.790Z,2.20
2018-08-12T12:34:11.344Z,1.40
2018-08-12T12:39:14.852Z,1.60
2018-08-12T12:44:18.368Z,1.45
2018-08-12T12:49:21.880Z,1.10
2018-08-12T12:54:25.358Z,1.20
2018-08-12T12:59:28.863Z,1.37
2018-08-12T13:04:32.375Z,1.30
2018-08-12T13:09:35.897Z,1.20
2018-08-12T13:14:39.424Z,0.80
2018-08-12T13:19:42.959Z,1.20
2018-08-12T13:24:46.508Z,1.20
2018-08-12T13:29:50.040Z,1.00
2018-08-12T13:34:53.581Z,1.37
2018-08-12T13:39:57.125Z,1.12
2018-08-12T13:45:00.628Z,0.90
2018-08-12T13:50:05.063Z,1.32
2018-08-12T13:55:08.685Z,1.10
2018-08-12T14:00:14.848Z,1.10
2018-08-12T14:05:19.061Z,1.20
2018-08-12T14:10:22.533Z,1.12
2018-08-12T14:15:26.176Z,0.90
2018-08-12T14:20:29.696Z,1.27
2018-08-12T17:14:13.997Z,1.50
2018-08-12T17:19:17.612Z,3.27
2018-08-12T17:24:21.247Z,5.80
2018-08-12T17:29:24.794Z,2.98
2018-08-12T17:34:28.376Z,2.50
2018-08-12T17:39:31.973Z,1.75
2018-08-12T17:44:35.639Z,1.45
2018-08-12T17:49:39.274Z,1.27
2018-08-12T17:54:42.782Z,1.30
2018-08-12T17:59:46.341Z,1.27
2018-08-12T18:04:49.950Z,1.17
2018-08-12T18:09:53.512Z,1.20
2018-08-12T18:14:57.033Z,1.55
2018-08-12T18:20:00.545Z,2.12
2018-08-12T18:25:04.629Z,2.10
2018-08-12T18:30:11.300Z,1.60
2018-08-12T18:35:14.831Z,1.87
2018-08-12T18:40:18.279Z,1.50
2018-08-12T18:45:21.736Z,1.40
2018-08-12T18:50:25.284Z,1.70
2018-08-12T18:55:28.798Z,1.60
2018-08-12T19:00:32.298Z,1.40
2018-08-12T19:05:35.815Z,1.45
2018-08-12T19:10:39.338Z,1.55
2018-08-12T19:15:42.887Z,1.35
2018-08-12T19:20:46.506Z,1.10
2018-08-12T19:25:50.039Z,1.50
2018-08-12T19:30:53.545Z,1.40
2018-08-12T19:35:57.040Z,1.67
2018-08-12T19:41:00.595Z,1.22
2018-08-12T19:46:04.090Z,1.80
2018-08-12T19:51:07.652Z,1.80
2018-08-12T19:56:11.124Z,1.50
2018-08-12T20:01:14.668Z,1.47
2018-08-12T20:06:18.208Z,1.60
2018-08-12T20:11:21.724Z,1.80
2018-08-12T20:16:25.249Z,1.65
2018-08-12T20:21:28.754Z,1.55
2018-08-12T20:26:39.030Z,1.50
2018-08-12T20:31:42.506Z,1.62
2018-08-12T20:36:46.077Z,1.80
2018-08-12T20:41:49.597Z,1.47
2018-08-12T20:46:53.171Z,1.75
2018-08-12T20:51:56.737Z,1.72
2018-08-12T20:57:00.226Z,1.80
2018-08-12T21:02:03.825Z,1.72
2018-08-12T21:07:07.409Z,1.92
2018-08-12T21:12:11.042Z,1.40
2018-08-12T21:17:14.417Z,1.85
2018-08-12T21:22:17.909Z,1.50
2018-08-12T21:27:21.387Z,1.82
2018-08-12T21:32:24.850Z,1.60
2018-08-12T21:37:28.361Z,1.60
2018-08-12T21:42:31.853Z,1.62
2018-08-12T21:47:35.391Z,1.98
2018-08-12T21:52:38.858Z,2.10
2018-08-12T21:57:42.385Z,1.87
2018-08-12T22:02:46.118Z,1.82
2018-08-12T22:07:49.630Z,1.60
2018-08-12T22:12:53.120Z,2.05
2018-08-12T22:17:56.667Z,1.90
2018-08-12T22:23:00.125Z,1.75
2018-08-12T22:28:04.174Z,1.87
2018-08-12T22:33:07.726Z,2.00
2018-08-12T22:38:11.204Z,2.00
2018-08-12T22:43:14.663Z,2.17
2018-08-12T22:48:18.153Z,1.98
2018-08-12T22:53:21.603Z,2.00
2018-08-12T22:58:25.093Z,1.85
2018-08-12T23:03:28.623Z,2.10
2018-08-12T23:08:32.119Z,2.05
2018-08-12T23:13:35.592Z,2.02
2018-08-12T23:19:42.199Z,2.10
2018-08-12T23:24:45.648Z,1.80
2018-08-12T23:29:49.100Z,2.00
2018-08-12T23:34:52.543Z,1.85
2018-08-12T23:39:56.027Z,2.27
2018-08-12T23:44:59.477Z,2.13
2018-08-12T23:50:02.898Z,1.80
2018-08-12T23:55:06.407Z,2.23
